sensor_id;sensor_type;location;lat;lon;timestamp;pressure;altitude;pressure_sealevel;temperature;humidity
58223;BME280;44020;50.890;15.796;2023-01-25T01:23:07;99452.80;;;1.64;92.09
58223;BME280;44020;50.890;15.796;2023-01-25T02:17:49;99379.95;;;1.59;92.01
58223;BME280;44020;50.890;15.796;2023-01-25T02:20:59;99373.67;;;1.58;91.79
58223;BME280;44020;50.890;15.796;2023-01-25T02:38:24;99346.52;;;1.55;91.82
58223;BME280;44020;50.890;15.796;2023-01-25T03:02:43;99331.84;;;1.52;92.10
58223;BME280;44020;50.890;15.796;2023-01-25T03:05:54;99326.77;;;1.51;92.05
58223;BME280;44020;50.890;15.796;2023-01-25T03:32:53;99319.11;;;1.46;92.15
58223;BME280;44020;50.890;15.796;2023-01-25T03:38:59;99319.11;;;1.46;92.06
58223;BME280;44020;50.890;15.796;2023-01-25T03:45:42;99321.89;;;1.48;92.08
58223;BME280;44020;50.890;15.796;2023-01-25T03:48:42;99323.89;;;1.39;92.51
58223;BME280;44020;50.890;15.796;2023-01-25T03:51:21;99330.02;;;1.36;92.28
58223;BME280;44020;50.890;15.796;2023-01-25T04:11:11;99333.75;;;1.28;92.42
58223;BME280;44020;50.890;15.796;2023-01-25T04:14:52;99335.68;;;1.29;92.34
58223;BME280;44020;50.890;15.796;2023-01-25T04:24:17;99337.77;;;1.29;92.48
58223;BME280;44020;50.890;15.796;2023-01-25T04:56:15;99327.66;;;1.23;92.29
58223;BME280;44020;50.890;15.796;2023-01-25T05:06:12;99321.15;;;1.29;92.44
58223;BME280;44020;50.890;15.796;2023-01-25T05:09:31;99311.52;;;1.28;92.25
58223;BME280;44020;50.890;15.796;2023-01-25T05:22:55;99299.08;;;1.30;92.37
58223;BME280;44020;50.890;15.796;2023-01-25T05:26:04;99293.13;;;1.30;92.41
58223;BME280;44020;50.890;15.796;2023-01-25T05:36:23;99283.98;;;1.36;92.24
58223;BME280;44020;50.890;15.796;2023-01-25T05:49:59;99268.73;;;1.39;92.39
58223;BME280;44020;50.890;15.796;2023-01-25T07:08:11;99220.71;;;1.22;91.12
58223;BME280;44020;50.890;15.796;2023-01-25T07:11:03;99217.23;;;1.19;91.60
58223;BME280;44020;50.890;15.796;2023-01-25T07:13:54;99214.60;;;1.20;91.66
58223;BME280;44020;50.890;15.796;2023-01-25T07:20:10;99220.37;;;1.22;91.61
58223;BME280;44020;50.890;15.796;2023-01-25T07:23:35;99220.08;;;1.13;91.46
58223;BME280;44020;50.890;15.796;2023-01-25T07:36:28;99208.05;;;1.08;92.06
58223;BME280;44020;50.890;15.796;2023-01-25T07:43:10;99202.77;;;1.12;91.85
58223;BME280;44020;50.890;15.796;2023-01-25T07:45:46;99200.50;;;1.11;91.60
58223;BME280;44020;50.890;15.796;2023-01-25T07:55:18;99205.98;;;1.04;91.59
58223;BME280;44020;50.890;15.796;2023-01-25T07:58:03;99206.90;;;0.98;91.92
58223;BME280;44020;50.890;15.796;2023-01-25T08:00:53;99204.98;;;0.96;91.92
58223;BME280;44020;50.890;15.796;2023-01-25T08:10:27;99205.66;;;0.99;92.26
58223;BME280;44020;50.890;15.796;2023-01-25T08:29:20;99193.42;;;1.20;91.76
58223;BME280;44020;50.890;15.796;2023-01-25T08:32:16;99187.30;;;1.19;91.43
58223;BME280;44020;50.890;15.796;2023-01-25T08:35:20;99185.96;;;1.13;91.40
58223;BME280;44020;50.890;15.796;2023-01-25T08:38:37;99183.48;;;1.15;91.71
58223;BME280;44020;50.890;15.796;2023-01-25T08:41:44;99180.83;;;1.18;91.76
58223;BME280;44020;50.890;15.796;2023-01-25T08:45:15;99177.45;;;1.24;91.61
58223;BME280;44020;50.890;15.796;2023-01-25T08:47:51;99177.98;;;1.24;91.57
58223;BME280;44020;50.890;15.796;2023-01-25T08:50:45;99180.23;;;1.27;91.45
58223;BME280;44020;50.890;15.796;2023-01-25T08:53:25;99180.73;;;1.29;91.54
58223;BME280;44020;50.890;15.796;2023-01-25T08:56:24;99183.36;;;1.30;91.38
58223;BME280;44020;50.890;15.796;2023-01-25T08:59:14;99177.75;;;1.31;91.11
58223;BME280;44020;50.890;15.796;2023-01-25T09:05:03;99173.52;;;1.34;91.20
58223;BME280;44020;50.890;15.796;2023-01-25T09:07:53;99173.50;;;1.34;91.26
58223;BME280;44020;50.890;15.796;2023-01-25T09:10:43;99170.88;;;1.34;91.19
58223;BME280;44020;50.890;15.796;2023-01-25T09:13:20;99171.05;;;1.36;91.04
58223;BME280;44020;50.890;15.796;2023-01-25T09:16:43;99167.86;;;1.37;91.41
58223;BME280;44020;50.890;15.796;2023-01-25T09:19:20;99165.98;;;1.33;90.78
58223;BME280;44020;50.890;15.796;2023-01-25T09:21:48;99162.88;;;1.29;90.91
58223;BME280;44020;50.890;15.796;2023-01-25T09:24:21;99164.13;;;1.27;90.56
58223;BME280;44020;50.890;15.796;2023-01-25T09:26:56;99160.13;;;1.23;90.86
58223;BME280;44020;50.890;15.796;2023-01-25T09:29:30;99160.11;;;1.25;90.82
58223;BME280;44020;50.890;15.796;2023-01-25T09:32:20;99159.23;;;1.26;90.57
58223;BME280;44020;50.890;15.796;2023-01-25T09:35:32;99158.56;;;1.23;90.66
58223;BME280;44020;50.890;15.796;2023-01-25T09:37:59;99156.64;;;1.22;90.83
58223;BME280;44020;50.890;15.796;2023-01-25T09:50:26;99145.72;;;1.29;90.93
58223;BME280;44020;50.890;15.796;2023-01-25T09:59:14;99129.66;;;1.24;90.87
58223;BME280;44020;50.890;15.796;2023-01-25T10:02:26;99129.64;;;1.26;90.99
58223;BME280;44020;50.890;15.796;2023-01-25T10:15:19;99106.70;;;1.08;90.91
58223;BME280;44020;50.890;15.796;2023-01-25T10:21:47;99100.51;;;1.15;91.11
58223;BME280;44020;50.890;15.796;2023-01-25T10:35:21;99089.13;;;1.32;91.12
58223;BME280;44020;50.890;15.796;2023-01-25T10:41:15;99086.32;;;1.34;90.92
58223;BME280;44020;50.890;15.796;2023-01-25T10:43:54;99083.02;;;1.32;90.54
58223;BME280;44020;50.890;15.796;2023-01-25T10:57:32;99068.89;;;1.27;90.67
58223;BME280;44020;50.890;15.796;2023-01-25T11:03:55;99054.70;;;1.26;91.00
58223;BME280;44020;50.890;15.796;2023-01-25T11:09:43;99050.16;;;1.25;90.79
58223;BME280;44020;50.890;15.796;2023-01-25T11:32:55;99017.08;;;1.11;90.84
58223;BME280;44020;50.890;15.796;2023-01-25T11:39:04;99009.05;;;1.09;91.41
58223;BME280;44020;50.890;15.796;2023-01-25T12:31:45;98945.30;;;1.11;91.88
58223;BME280;44020;50.890;15.796;2023-01-25T12:56:27;98897.80;;;1.17;91.87
58223;BME280;44020;50.890;15.796;2023-01-25T13:12:52;98883.36;;;0.98;91.60
58223;BME280;44020;50.890;15.796;2023-01-25T13:25:44;98857.98;;;0.85;92.09
58223;BME280;44020;50.890;15.796;2023-01-25T13:28:43;98861.78;;;0.88;92.29
58223;BME280;44020;50.890;15.796;2023-01-25T13:31:43;98859.11;;;0.92;92.29
58223;BME280;44020;50.890;15.796;2023-01-25T13:37:43;98849.10;;;0.95;92.08
58223;BME280;44020;50.890;15.796;2023-01-25T13:44:22;98840.45;;;1.00;92.31
58223;BME280;44020;50.890;15.796;2023-01-25T13:47:14;98840.23;;;1.03;92.15
58223;BME280;44020;50.890;15.796;2023-01-25T13:52:29;98841.20;;;0.96;91.74
58223;BME280;44020;50.890;15.796;2023-01-25T13:54:59;98832.84;;;0.94;91.96
58223;BME280;44020;50.890;15.796;2023-01-25T13:57:29;98831.95;;;0.95;92.14
58223;BME280;44020;50.890;15.796;2023-01-25T14:02:54;98826.77;;;0.89;92.42
58223;BME280;44020;50.890;15.796;2023-01-25T14:05:26;98822.95;;;0.88;92.03
58223;BME280;44020;50.890;15.796;2023-01-25T14:07:56;98826.64;;;0.86;92.21
58223;BME280;44020;50.890;15.796;2023-01-25T14:10:26;98824.70;;;0.87;92.54
58223;BME280;44020;50.890;15.796;2023-01-25T14:16:11;98820.44;;;0.92;92.36
58223;BME280;44020;50.890;15.796;2023-01-25T14:18:38;98820.02;;;0.85;92.15
58223;BME280;44020;50.890;15.796;2023-01-25T14:21:32;98820.47;;;0.76;92.16
58223;BME280;44020;50.890;15.796;2023-01-25T14:24:16;98819.14;;;0.71;92.77
58223;BME280;44020;50.890;15.796;2023-01-25T14:26:51;98813.49;;;0.74;92.60
58223;BME280;44020;50.890;15.796;2023-01-25T14:29:22;98810.34;;;0.75;92.90
58223;BME280;44020;50.890;15.796;2023-01-25T14:31:50;98808.64;;;0.72;92.76
58223;BME280;44020;50.890;15.796;2023-01-25T14:34:19;98803.92;;;0.71;92.73
58223;BME280;44020;50.890;15.796;2023-01-25T14:36:47;98801.65;;;0.71;92.92
58223;BME280;44020;50.890;15.796;2023-01-25T14:39:33;98802.58;;;0.68;93.00
58223;BME280;44020;50.890;15.796;2023-01-25T14:42:06;98797.02;;;0.65;93.08
58223;BME280;44020;50.890;15.796;2023-01-25T14:44:34;98797.55;;;0.64;93.24
58223;BME280;44020;50.890;15.796;2023-01-25T14:53:22;98785.50;;;0.63;93.16
58223;BME280;44020;50.890;15.796;2023-01-25T14:55:54;98779.19;;;0.64;93.40
58223;BME280;44020;50.890;15.796;2023-01-25T14:58:23;98777.23;;;0.66;93.46
58223;BME280;44020;50.890;15.796;2023-01-25T15:01:02;98766.19;;;0.68;93.60
58223;BME280;44020;50.890;15.796;2023-01-25T15:03:51;98759.49;;;0.72;93.60
58223;BME280;44020;50.890;15.796;2023-01-25T15:06:44;98757.71;;;0.75;93.41
58223;BME280;44020;50.890;15.796;2023-01-25T15:09:38;98757.52;;;0.75;93.36
58223;BME280;44020;50.890;15.796;2023-01-25T15:12:28;98753.48;;;0.77;93.42
58223;BME280;44020;50.890;15.796;2023-01-25T15:14:57;98751.34;;;0.79;93.56
58223;BME280;44020;50.890;15.796;2023-01-25T15:17:47;98743.09;;;0.81;93.32
58223;BME280;44020;50.890;15.796;2023-01-25T15:20:40;98741.51;;;0.82;93.34
58223;BME280;44020;50.890;15.796;2023-01-25T15:23:15;98735.36;;;0.83;93.14
58223;BME280;44020;50.890;15.796;2023-01-25T15:25:55;98731.89;;;0.83;93.09
58223;BME280;44020;50.890;15.796;2023-01-25T15:31:58;98713.88;;;0.82;93.04
58223;BME280;44020;50.890;15.796;2023-01-25T15:34:48;98712.13;;;0.81;93.06
58223;BME280;44020;50.890;15.796;2023-01-25T15:37:21;98708.15;;;0.79;92.68
58223;BME280;44020;50.890;15.796;2023-01-25T15:49:26;98689.89;;;0.72;92.72
58223;BME280;44020;50.890;15.796;2023-01-25T15:52:17;98683.22;;;0.73;92.66
58223;BME280;44020;50.890;15.796;2023-01-25T15:54:56;98684.92;;;0.77;92.77
58223;BME280;44020;50.890;15.796;2023-01-25T15:58:04;98683.99;;;0.79;92.75
58223;BME280;44020;50.890;15.796;2023-01-25T16:00:41;98682.03;;;0.82;92.82
58223;BME280;44020;50.890;15.796;2023-01-25T16:03:47;98682.19;;;0.83;92.93
58223;BME280;44020;50.890;15.796;2023-01-25T16:06:38;98674.84;;;0.83;92.61
58223;BME280;44020;50.890;15.796;2023-01-25T16:09:19;98671.52;;;0.83;92.67
58223;BME280;44020;50.890;15.796;2023-01-25T16:12:08;98661.56;;;0.83;92.43
58223;BME280;44020;50.890;15.796;2023-01-25T16:17:31;98663.16;;;0.81;92.57
58223;BME280;44020;50.890;15.796;2023-01-25T16:20:14;98660.52;;;0.81;92.46
58223;BME280;44020;50.890;15.796;2023-01-25T16:22:42;98655.95;;;0.83;92.61
58223;BME280;44020;50.890;15.796;2023-01-25T16:25:30;98649.98;;;0.85;92.61
58223;BME280;44020;50.890;15.796;2023-01-25T16:28:00;98648.56;;;0.86;92.62
58223;BME280;44020;50.890;15.796;2023-01-25T16:30:28;98643.31;;;0.86;92.56
58223;BME280;44020;50.890;15.796;2023-01-25T16:33:02;98642.05;;;0.88;92.50
58223;BME280;44020;50.890;15.796;2023-01-25T16:35:30;98643.27;;;0.88;92.56
58223;BME280;44020;50.890;15.796;2023-01-25T16:38:05;98639.27;;;0.87;92.49
58223;BME280;44020;50.890;15.796;2023-01-25T16:40:34;98636.98;;;0.88;92.35
58223;BME280;44020;50.890;15.796;2023-01-25T16:43:11;98628.60;;;0.87;92.19
58223;BME280;44020;50.890;15.796;2023-01-25T16:45:41;98630.89;;;0.86;92.45
58223;BME280;44020;50.890;15.796;2023-01-25T16:48:15;98630.89;;;0.86;92.49
58223;BME280;44020;50.890;15.796;2023-01-25T16:50:45;98628.45;;;0.85;92.41
58223;BME280;44020;50.890;15.796;2023-01-25T16:53:18;98620.08;;;0.84;92.47
58223;BME280;44020;50.890;15.796;2023-01-25T16:55:45;98616.58;;;0.84;92.49
58223;BME280;44020;50.890;15.796;2023-01-25T16:58:17;98613.09;;;0.83;92.04
58223;BME280;44020;50.890;15.796;2023-01-25T17:00:44;98612.23;;;0.82;92.36
58223;BME280;44020;50.890;15.796;2023-01-25T17:03:15;98606.65;;;0.81;92.36
58223;BME280;44020;50.890;15.796;2023-01-25T17:05:42;98603.33;;;0.80;92.32
58223;BME280;44020;50.890;15.796;2023-01-25T17:08:10;98598.26;;;0.81;92.27
58223;BME280;44020;50.890;15.796;2023-01-25T17:11:02;98594.25;;;0.81;92.44
58223;BME280;44020;50.890;15.796;2023-01-25T17:13:43;98591.66;;;0.78;92.39
58223;BME280;44020;50.890;15.796;2023-01-25T17:16:39;98587.35;;;0.75;92.15
58223;BME280;44020;50.890;15.796;2023-01-25T17:19:18;98574.61;;;0.73;92.58
58223;BME280;44020;50.890;15.796;2023-01-25T17:21:49;98571.64;;;0.73;92.51
58223;BME280;44020;50.890;15.796;2023-01-25T17:24:30;98570.60;;;0.72;92.51
58223;BME280;44020;50.890;15.796;2023-01-25T17:27:01;98569.38;;;0.73;92.39
58223;BME280;44020;50.890;15.796;2023-01-25T17:29:47;98566.54;;;0.75;92.70
58223;BME280;44020;50.890;15.796;2023-01-25T17:32:15;98562.67;;;0.76;92.62
58223;BME280;44020;50.890;15.796;2023-01-25T17:34:43;98561.14;;;0.74;92.56
58223;BME280;44020;50.890;15.796;2023-01-25T17:37:24;98561.30;;;0.74;92.74
58223;BME280;44020;50.890;15.796;2023-01-25T17:39:54;98557.45;;;0.74;92.65
58223;BME280;44020;50.890;15.796;2023-01-25T17:42:22;98557.30;;;0.73;92.43
58223;BME280;44020;50.890;15.796;2023-01-25T17:44:49;98554.86;;;0.73;92.49
58223;BME280;44020;50.890;15.796;2023-01-25T17:47:20;98556.14;;;0.69;92.29
58223;BME280;44020;50.890;15.796;2023-01-25T17:49:49;98549.23;;;0.63;92.33
58223;BME280;44020;50.890;15.796;2023-01-25T17:52:25;98547.02;;;0.60;92.49
58223;BME280;44020;50.890;15.796;2023-01-25T17:54:53;98540.73;;;0.60;92.49
58223;BME280;44020;50.890;15.796;2023-01-25T17:57:21;98539.87;;;0.59;92.48
58223;BME280;44020;50.890;15.796;2023-01-25T18:00:00;98538.17;;;0.57;92.61
58223;BME280;44020;50.890;15.796;2023-01-25T18:02:37;98540.48;;;0.53;92.68
58223;BME280;44020;50.890;15.796;2023-01-25T18:08:29;98536.36;;;0.50;92.53
58223;BME280;44020;50.890;15.796;2023-01-25T18:11:18;98531.60;;;0.51;92.68
58223;BME280;44020;50.890;15.796;2023-01-25T18:14:23;98534.80;;;0.49;92.61
58223;BME280;44020;50.890;15.796;2023-01-25T18:16:51;98536.18;;;0.49;92.71
58223;BME280;44020;50.890;15.796;2023-01-25T18:19:21;98531.46;;;0.50;92.96
58223;BME280;44020;50.890;15.796;2023-01-25T18:25:03;98531.10;;;0.51;93.13
58223;BME280;44020;50.890;15.796;2023-01-25T18:27:36;98529.89;;;0.50;92.98
58223;BME280;44020;50.890;15.796;2023-01-25T18:30:20;98526.91;;;0.50;92.94
58223;BME280;44020;50.890;15.796;2023-01-25T18:36:22;98530.24;;;0.49;93.08
58223;BME280;44020;50.890;15.796;2023-01-25T18:38:50;98526.73;;;0.50;93.07
58223;BME280;44020;50.890;15.796;2023-01-25T18:42:07;98529.39;;;0.48;92.77
58223;BME280;44020;50.890;15.796;2023-01-25T18:44:40;98526.75;;;0.38;92.58
58223;BME280;44020;50.890;15.796;2023-01-25T18:47:24;98526.64;;;0.34;93.21
58223;BME280;44020;50.890;15.796;2023-01-25T18:49:58;98525.71;;;0.38;93.15
58223;BME280;44020;50.890;15.796;2023-01-25T18:52:28;98520.08;;;0.40;93.07
58223;BME280;44020;50.890;15.796;2023-01-25T18:57:52;98516.98;;;0.36;92.95
58223;BME280;44020;50.890;15.796;2023-01-25T19:00:59;98513.17;;;0.35;93.13
58223;BME280;44020;50.890;15.796;2023-01-25T19:03:33;98512.34;;;0.32;93.21
58223;BME280;44020;50.890;15.796;2023-01-25T19:06:01;98511.64;;;0.32;93.37
58223;BME280;44020;50.890;15.796;2023-01-25T19:08:30;98506.62;;;0.29;93.50
58223;BME280;44020;50.890;15.796;2023-01-25T19:11:23;98504.90;;;0.28;93.46
58223;BME280;44020;50.890;15.796;2023-01-25T19:14:00;98507.73;;;0.26;93.43
58223;BME280;44020;50.890;15.796;2023-01-25T19:16:51;98503.49;;;0.17;93.41
58223;BME280;44020;50.890;15.796;2023-01-25T19:19:39;98503.38;;;0.14;93.58
58223;BME280;44020;50.890;15.796;2023-01-25T19:22:11;98499.80;;;0.18;94.20
58223;BME280;44020;50.890;15.796;2023-01-25T19:28:16;98493.73;;;0.27;93.91
58223;BME280;44020;50.890;15.796;2023-01-25T19:31:07;98491.08;;;0.29;93.91
58223;BME280;44020;50.890;15.796;2023-01-25T19:33:38;98495.48;;;0.36;94.30
58223;BME280;44020;50.890;15.796;2023-01-25T19:36:36;98498.23;;;0.39;94.17
58223;BME280;44020;50.890;15.796;2023-01-25T19:39:17;98496.15;;;0.38;93.75
58223;BME280;44020;50.890;15.796;2023-01-25T19:42:26;98486.21;;;0.37;94.01
58223;BME280;44020;50.890;15.796;2023-01-25T19:45:08;98482.05;;;0.36;94.01
58223;BME280;44020;50.890;15.796;2023-01-25T19:48:24;98481.17;;;0.36;93.89
58223;BME280;44020;50.890;15.796;2023-01-25T19:51:31;98477.50;;;0.36;93.91
58223;BME280;44020;50.890;15.796;2023-01-25T19:54:13;98472.06;;;0.37;93.84
58223;BME280;44020;50.890;15.796;2023-01-25T19:57:14;98465.66;;;0.33;93.44
58223;BME280;44020;50.890;15.796;2023-01-25T19:59:54;98458.20;;;0.30;93.69
58223;BME280;44020;50.890;15.796;2023-01-25T20:03:03;98453.12;;;0.31;93.72
58223;BME280;44020;50.890;15.796;2023-01-25T20:05:32;98451.88;;;0.32;93.77
58223;BME280;44020;50.890;15.796;2023-01-25T20:11:57;98443.57;;;0.27;93.82
58223;BME280;44020;50.890;15.796;2023-01-25T20:14:38;98435.73;;;0.27;93.91
58223;BME280;44020;50.890;15.796;2023-01-25T20:17:26;98430.13;;;0.26;93.75
58223;BME280;44020;50.890;15.796;2023-01-25T20:20:14;98434.30;;;0.28;93.89
58223;BME280;44020;50.890;15.796;2023-01-25T20:22:52;98427.27;;;0.29;93.86
58223;BME280;44020;50.890;15.796;2023-01-25T20:25:32;98420.98;;;0.30;93.80
58223;BME280;44020;50.890;15.796;2023-01-25T20:28:03;98418.53;;;0.30;93.64
58223;BME280;44020;50.890;15.796;2023-01-25T20:30:52;98421.68;;;0.29;93.68
58223;BME280;44020;50.890;15.796;2023-01-25T20:33:23;98422.20;;;0.30;93.80
58223;BME280;44020;50.890;15.796;2023-01-25T20:35:58;98415.38;;;0.30;93.85
58223;BME280;44020;50.890;15.796;2023-01-25T20:38:56;98410.50;;;0.29;93.55
58223;BME280;44020;50.890;15.796;2023-01-25T20:44:43;98399.97;;;0.32;93.82
58223;BME280;44020;50.890;15.796;2023-01-25T20:47:16;98388.94;;;0.33;93.86
58223;BME280;44020;50.890;15.796;2023-01-25T20:49:55;98385.05;;;0.35;93.73
58223;BME280;44020;50.890;15.796;2023-01-25T20:55:15;98379.98;;;0.35;93.60
58223;BME280;44020;50.890;15.796;2023-01-25T20:58:03;98383.16;;;0.34;93.71
58223;BME280;44020;50.890;15.796;2023-01-25T21:04:25;98378.83;;;0.32;93.87
58223;BME280;44020;50.890;15.796;2023-01-25T21:07:21;98377.95;;;0.33;93.89
58223;BME280;44020;50.890;15.796;2023-01-25T21:09:52;98376.84;;;0.35;93.91
58223;BME280;44020;50.890;15.796;2023-01-25T21:12:23;98377.86;;;0.37;93.74
58223;BME280;44020;50.890;15.796;2023-01-25T21:15:20;98377.86;;;0.36;93.81
58223;BME280;44020;50.890;15.796;2023-01-25T21:20:31;98374.50;;;0.39;93.97
58223;BME280;44020;50.890;15.796;2023-01-25T21:23:12;98374.98;;;0.41;93.84
58223;BME280;44020;50.890;15.796;2023-01-25T21:32:51;98357.44;;;0.45;93.49
58223;BME280;44020;50.890;15.796;2023-01-25T21:42:17;98351.90;;;0.40;93.57
58223;BME280;44020;50.890;15.796;2023-01-25T21:45:15;98354.71;;;0.40;93.44
58223;BME280;44020;50.890;15.796;2023-01-25T21:51:57;98336.97;;;0.36;93.47
58223;BME280;44020;50.890;15.796;2023-01-25T21:54:40;98336.31;;;0.34;93.56
58223;BME280;44020;50.890;15.796;2023-01-25T21:57:35;98333.16;;;0.35;93.38
58223;BME280;44020;50.890;15.796;2023-01-25T22:00:37;98327.92;;;0.34;93.46
58223;BME280;44020;50.890;15.796;2023-01-25T22:10:14;98316.00;;;0.27;93.37
58223;BME280;44020;50.890;15.796;2023-01-25T22:19:52;98303.73;;;0.19;93.33
58223;BME280;44020;50.890;15.796;2023-01-25T22:37:39;98283.15;;;0.93;93.59
58223;BME280;44020;50.890;15.796;2023-01-25T22:43:38;98289.89;;;0.89;93.49
58223;BME280;44020;50.890;15.796;2023-01-25T22:46:46;98292.34;;;0.81;93.39
58223;BME280;44020;50.890;15.796;2023-01-25T22:49:32;98294.19;;;0.69;93.12
58223;BME280;44020;50.890;15.796;2023-01-25T22:52:11;98295.58;;;0.60;93.45
58223;BME280;44020;50.890;15.796;2023-01-25T22:55:01;98289.25;;;0.54;93.17
58223;BME280;44020;50.890;15.796;2023-01-25T22:57:55;98278.54;;;0.48;93.32
58223;BME280;44020;50.890;15.796;2023-01-25T23:03:59;98271.86;;;0.40;93.64
58223;BME280;44020;50.890;15.796;2023-01-25T23:06:55;98262.59;;;0.40;93.60
58223;BME280;44020;50.890;15.796;2023-01-25T23:09:39;98258.65;;;0.37;93.45
58223;BME280;44020;50.890;15.796;2023-01-25T23:12:10;98259.88;;;0.36;93.12
58223;BME280;44020;50.890;15.796;2023-01-25T23:14:37;98258.16;;;0.36;93.29
58223;BME280;44020;50.890;15.796;2023-01-25T23:17:19;98254.70;;;0.33;93.26
58223;BME280;44020;50.890;15.796;2023-01-25T23:20:18;98241.33;;;0.30;93.39
58223;BME280;44020;50.890;15.796;2023-01-25T23:22:50;98233.49;;;0.29;93.09
58223;BME280;44020;50.890;15.796;2023-01-25T23:25:25;98231.72;;;0.21;93.10
58223;BME280;44020;50.890;15.796;2023-01-25T23:28:16;98234.17;;;0.12;93.16
58223;BME280;44020;50.890;15.796;2023-01-25T23:31:09;98230.98;;;0.05;93.28
58223;BME280;44020;50.890;15.796;2023-01-25T23:34:00;98218.95;;;0.04;93.36
58223;BME280;44020;50.890;15.796;2023-01-25T23:39:45;98229.98;;;0.02;93.48
58223;BME280;44020;50.890;15.796;2023-01-25T23:45:19;98228.97;;;0.01;93.64
58223;BME280;44020;50.890;15.796;2023-01-25T23:47:47;98233.35;;;0.01;93.73
58223;BME280;44020;50.890;15.796;2023-01-25T23:50:23;98234.09;;;-0.02;93.55
58223;BME280;44020;50.890;15.796;2023-01-25T23:52:51;98231.95;;;-0.08;93.68
58223;BME280;44020;50.890;15.796;2023-01-25T23:55:18;98222.65;;;-0.07;94.12
58223;BME280;44020;50.890;15.796;2023-01-25T23:57:46;98219.68;;;-0.06;94.00
